CheckWX is a tool to help pilots better visualize weather data.  It is not intended as a substitute for an official pre-flight weather briefing.

06:30:04 UTC

KTOC METAR
Toccoa Rg Letourneau Field Airport
Toccoa, Georgia, USA
Current

15 mins ago

KTOC 190615Z AUTO 00000KT 10SM OVC049 21/17 A3018 RMK AO2 T02120165
Observed
Sep-19 @ 06:15 UTC
Visibility
10 SM
Flight Rules
VFR
Cloud Levels
  • Overcast at 4,900' AGL
Temperature
21°C / 70°F
Dewpoint
17°C / 63°F
Humidity
78%
Altimeter
30.18" Hg
Pressure
1022.02 hPa
Previous

35 mins ago

KTOC 190555Z AUTO 05003KT 10SM OVC049 21/17 A3018 RMK AO2 T02120165 10225 20212 402510212
Observed
Sep-19 @ 05:55 UTC
Wind
  • 050° at 3 KTS
Visibility
10 SM
Flight Rules
VFR
Cloud Levels
  • Overcast at 4,900' AGL
Temperature
21°C / 70°F
Dewpoint
17°C / 63°F
Humidity
78%
Altimeter
30.18" Hg
Pressure
1022.02 hPa
Previous

55 mins ago

KTOC 190535Z AUTO 00000KT 10SM OVC049 21/17 A3018 RMK AO2 T02130165
Observed
Sep-19 @ 05:35 UTC
Visibility
10 SM
Flight Rules
VFR
Cloud Levels
  • Overcast at 4,900' AGL
Temperature
21°C / 70°F
Dewpoint
17°C / 63°F
Humidity
78%
Altimeter
30.18" Hg
Pressure
1022.02 hPa